createdAt,value
2017-10-17T00:00:56.490Z,11.80
2017-10-17T00:03:23.966Z,11.50
2017-10-17T00:05:51.398Z,11.33
2017-10-17T00:08:18.849Z,10.93
2017-10-17T00:10:46.294Z,11.60
2017-10-17T00:13:13.712Z,10.30
2017-10-17T00:15:41.214Z,11.63
2017-10-17T00:18:08.653Z,11.63
2017-10-17T00:20:36.105Z,11.67
2017-10-17T00:23:03.506Z,10.97
2017-10-17T00:25:30.994Z,10.27
2017-10-17T00:27:58.452Z,11.13
2017-10-17T00:30:26.675Z,9.97
2017-10-17T00:32:54.115Z,11.27
2017-10-17T00:35:21.517Z,11.17
2017-10-17T00:37:48.940Z,11.30
2017-10-17T00:40:16.344Z,11.00
2017-10-17T00:42:43.806Z,11.20
2017-10-17T00:45:11.356Z,10.67
2017-10-17T00:47:38.807Z,10.90
2017-10-17T00:50:06.212Z,11.20
2017-10-17T00:52:33.723Z,11.20
2017-10-17T00:55:01.167Z,11.10
2017-10-17T00:57:28.581Z,10.97
2017-10-17T00:59:56.016Z,10.70
2017-10-17T01:02:23.409Z,10.13
2017-10-17T01:04:50.922Z,10.40
2017-10-17T01:07:18.402Z,11.27
2017-10-17T01:09:45.924Z,10.10
2017-10-17T01:12:13.348Z,10.30
2017-10-17T01:14:40.871Z,10.40
2017-10-17T01:17:08.443Z,10.50
2017-10-17T01:19:35.864Z,11.17
2017-10-17T01:22:03.307Z,10.53
2017-10-17T01:24:30.813Z,10.50
2017-10-17T01:26:58.261Z,10.40
2017-10-17T01:29:28.592Z,10.47
2017-10-17T01:31:56.078Z,11.10
2017-10-17T01:34:24.455Z,12.37
2017-10-17T01:36:51.910Z,11.50
2017-10-17T01:39:19.299Z,11.73
2017-10-17T01:41:46.759Z,10.53
2017-10-17T01:44:30.060Z,10.73
2017-10-17T01:46:57.484Z,11.50
2017-10-17T01:49:25.732Z,10.60
2017-10-17T01:51:53.835Z,10.37
2017-10-17T01:54:24.835Z,10.57
2017-10-17T01:56:52.237Z,10.93
2017-10-17T01:59:27.135Z,10.90
2017-10-17T02:01:54.543Z,11.60
2017-10-17T02:04:21.974Z,11.17
2017-10-17T02:06:49.425Z,10.50
2017-10-17T02:09:16.887Z,10.80
2017-10-17T02:11:44.335Z,9.77
2017-10-17T02:14:11.775Z,10.43
2017-10-17T02:16:39.251Z,10.47
2017-10-17T02:19:06.666Z,10.27
2017-10-17T02:21:45.799Z,9.83
2017-10-17T02:24:15.627Z,10.50
2017-10-17T02:26:43.120Z,10.77
2017-10-17T02:29:15.113Z,10.50
2017-10-17T02:31:42.568Z,10.70
2017-10-17T02:34:29.599Z,9.90
2017-10-17T02:36:57.118Z,10.40
2017-10-17T02:39:24.550Z,10.40
2017-10-17T02:41:51.987Z,10.73
2017-10-17T02:44:19.439Z,10.10
2017-10-17T02:46:49.692Z,10.60
2017-10-17T02:49:28.907Z,10.17
2017-10-17T02:51:56.335Z,10.53
2017-10-17T02:54:23.743Z,10.60
2017-10-17T02:56:51.201Z,10.77
2017-10-17T02:59:21.512Z,9.67
2017-10-17T03:01:48.938Z,10.40
2017-10-17T03:04:24.793Z,10.10
2017-10-17T03:06:52.257Z,10.43
2017-10-17T03:09:20.016Z,10.07
2017-10-17T03:11:47.412Z,9.63
2017-10-17T03:14:20.319Z,10.10
2017-10-17T03:16:47.724Z,10.50
2017-10-17T03:19:15.171Z,10.23
2017-10-17T03:21:46.294Z,10.33
2017-10-17T03:24:17.117Z,10.10
2017-10-17T03:26:45.524Z,10.17
2017-10-17T03:29:12.942Z,9.10
2017-10-17T03:31:40.421Z,9.27
2017-10-17T03:34:13.371Z,9.67
2017-10-17T03:36:43.423Z,10.30
2017-10-17T03:39:10.912Z,9.83
2017-10-17T03:41:38.314Z,9.80
2017-10-17T03:44:17.568Z,9.30
2017-10-17T03:46:47.681Z,9.77
2017-10-17T03:49:34.935Z,8.87
2017-10-17T03:52:02.339Z,9.53
2017-10-17T03:54:30.678Z,9.50
2017-10-17T03:56:58.094Z,9.50
2017-10-17T03:59:25.492Z,10.03
2017-10-17T04:01:52.919Z,10.50
2017-10-17T04:07:30.106Z,9.97
2017-10-17T04:10:10.395Z,9.93
2017-10-17T04:12:37.876Z,10.03
2017-10-17T04:15:09.020Z,10.30
2017-10-17T04:17:37.202Z,9.30
2017-10-17T04:20:05.320Z,9.03
2017-10-17T04:25:41.797Z,11.00
2017-10-17T04:28:21.071Z,10.70
2017-10-17T04:30:55.888Z,10.60
2017-10-17T04:36:29.338Z,10.53
2017-10-17T04:38:56.800Z,10.70
2017-10-17T04:41:24.465Z,10.50
2017-10-17T04:47:05.324Z,10.80
2017-10-17T04:49:44.352Z,11.03
2017-10-17T04:52:12.684Z,12.20
2017-10-17T04:54:55.801Z,10.10
2017-10-17T04:57:24.959Z,10.83
2017-10-17T05:00:04.112Z,10.60
2017-10-17T05:02:33.428Z,10.30
2017-10-17T05:05:04.459Z,10.70
2017-10-17T05:07:38.272Z,10.27
2017-10-17T05:10:09.501Z,12.70
2017-10-17T05:12:40.461Z,10.40
2017-10-17T05:15:08.923Z,16.30
2017-10-17T05:17:45.048Z,11.83
2017-10-17T05:20:16.880Z,10.90
2017-10-17T05:22:45.712Z,10.60
2017-10-17T05:25:17.704Z,10.97
2017-10-17T05:30:48.657Z,11.17
2017-10-17T05:36:25.672Z,11.10
2017-10-17T05:38:53.092Z,11.90
2017-10-17T05:41:20.534Z,14.23
2017-10-17T05:43:54.794Z,14.90
2017-10-17T05:46:22.253Z,14.33
2017-10-17T05:48:51.395Z,14.13
2017-10-17T05:51:25.611Z,13.30
2017-10-17T05:53:53.021Z,11.97
2017-10-17T05:56:20.497Z,11.70
2017-10-17T05:58:47.942Z,11.73
2017-10-17T06:01:15.348Z,11.70
2017-10-17T06:03:43.628Z,10.70
2017-10-17T06:06:11.032Z,10.60
2017-10-17T06:08:38.486Z,11.03
2017-10-17T06:11:05.930Z,11.67
2017-10-17T06:13:33.697Z,12.03
2017-10-17T06:16:01.143Z,11.20
2017-10-17T06:18:28.532Z,10.87
2017-10-17T06:20:55.979Z,11.67
2017-10-17T06:23:23.372Z,12.00
2017-10-17T06:25:50.799Z,11.43
2017-10-17T06:28:18.239Z,11.77
2017-10-17T06:30:45.675Z,11.90
2017-10-17T06:33:13.145Z,12.40
2017-10-17T06:35:41.193Z,12.27
2017-10-17T06:38:08.663Z,12.13
2017-10-17T06:40:36.152Z,10.40
2017-10-17T06:43:03.609Z,11.53
2017-10-17T06:45:31.007Z,10.87
2017-10-17T06:47:58.460Z,10.63
2017-10-17T06:50:25.904Z,11.63
2017-10-17T06:52:53.346Z,14.13
2017-10-17T06:55:20.782Z,11.73
2017-10-17T06:57:48.230Z,11.60
2017-10-17T07:00:15.651Z,11.20
2017-10-17T07:02:43.127Z,11.60
2017-10-17T07:05:10.593Z,12.43
2017-10-17T07:07:38.058Z,12.17
2017-10-17T07:10:05.500Z,12.43
2017-10-17T07:12:33.075Z,12.07
2017-10-17T07:15:00.582Z,12.57
2017-10-17T07:17:27.988Z,12.50
2017-10-17T07:19:55.432Z,12.47
2017-10-17T07:22:23.620Z,12.67
2017-10-17T07:24:51.049Z,12.83
2017-10-17T07:27:18.481Z,13.00
2017-10-17T07:29:45.902Z,12.60
2017-10-17T07:32:13.338Z,13.57
2017-10-17T07:34:40.791Z,13.70
2017-10-17T07:37:08.201Z,14.03
2017-10-17T07:39:35.621Z,14.60
2017-10-17T07:42:03.055Z,13.70
2017-10-17T07:44:30.492Z,14.20
2017-10-17T07:46:57.927Z,14.63
2017-10-17T07:49:25.342Z,22.30
2017-10-17T07:51:52.781Z,14.47
2017-10-17T07:54:20.183Z,16.23
2017-10-17T07:56:47.656Z,16.50
2017-10-17T07:59:15.065Z,17.27
2017-10-17T08:01:42.510Z,17.80
2017-10-17T08:04:09.994Z,17.83
2017-10-17T08:06:37.459Z,17.70
2017-10-17T08:09:04.898Z,16.63
2017-10-17T08:11:32.304Z,18.23
2017-10-17T08:13:59.730Z,17.20
2017-10-17T08:16:27.140Z,15.47
2017-10-17T08:18:54.641Z,17.43
2017-10-17T08:21:22.084Z,14.90
2017-10-17T08:23:49.532Z,14.00
2017-10-17T08:26:16.944Z,12.20
2017-10-17T08:28:44.361Z,24.30
2017-10-17T08:31:11.763Z,15.77
2017-10-17T08:33:41.101Z,13.77
2017-10-17T08:36:08.577Z,12.93
2017-10-17T08:38:36.020Z,14.33
2017-10-17T08:41:03.429Z,13.70
2017-10-17T08:43:31.033Z,13.83
2017-10-17T08:45:58.475Z,13.27
2017-10-17T08:48:25.890Z,13.47
2017-10-17T08:50:53.325Z,13.47
2017-10-17T08:53:20.759Z,14.10
2017-10-17T08:55:48.228Z,12.90
2017-10-17T08:58:15.628Z,13.20
2017-10-17T09:00:43.106Z,13.97
2017-10-17T09:03:10.508Z,14.17
2017-10-17T09:05:37.951Z,13.80
2017-10-17T09:08:05.355Z,13.83
2017-10-17T09:10:32.791Z,11.70
2017-10-17T09:13:00.244Z,11.93
2017-10-17T09:15:27.668Z,12.70
2017-10-17T09:17:55.133Z,10.27
2017-10-17T09:20:22.847Z,11.47
2017-10-17T09:22:50.393Z,11.03
2017-10-17T09:25:18.206Z,11.63
2017-10-17T09:27:45.678Z,11.60
2017-10-17T09:30:13.129Z,11.90
2017-10-17T09:32:40.683Z,11.70
2017-10-17T09:35:08.117Z,10.47
2017-10-17T09:37:35.550Z,11.50
2017-10-17T09:40:02.977Z,11.67
2017-10-17T09:42:30.511Z,11.23
2017-10-17T09:44:57.935Z,11.00
2017-10-17T09:47:25.379Z,12.30
2017-10-17T09:49:52.809Z,12.50
2017-10-17T09:52:20.221Z,12.40
2017-10-17T09:54:47.654Z,12.20
2017-10-17T09:57:15.052Z,12.63
2017-10-17T09:59:42.488Z,11.23
2017-10-17T10:02:09.931Z,10.70
2017-10-17T10:04:37.399Z,10.40
2017-10-17T10:07:04.888Z,12.20
2017-10-17T10:09:32.308Z,10.93
2017-10-17T10:11:59.736Z,10.67
2017-10-17T10:14:27.144Z,10.40
2017-10-17T10:16:54.590Z,16.23
2017-10-17T10:19:22.124Z,10.13
2017-10-17T10:21:50.252Z,8.27
2017-10-17T10:24:17.795Z,9.17
2017-10-17T10:26:46.167Z,7.90
2017-10-17T10:29:13.602Z,8.93
2017-10-17T10:31:41.012Z,8.73
2017-10-17T10:34:08.427Z,8.40
2017-10-17T10:36:35.924Z,8.50
2017-10-17T10:39:03.347Z,9.33
2017-10-17T10:41:30.815Z,8.67
2017-10-17T10:43:58.273Z,7.83
2017-10-17T10:46:25.706Z,8.57
2017-10-17T10:48:53.152Z,9.50
2017-10-17T10:51:20.603Z,9.10
2017-10-17T10:53:48.027Z,8.43
2017-10-17T10:56:15.436Z,8.53
2017-10-17T10:58:42.873Z,8.23
2017-10-17T11:01:10.312Z,9.00
2017-10-17T11:03:37.757Z,8.00
2017-10-17T11:06:05.227Z,8.50
2017-10-17T11:08:32.737Z,8.80
2017-10-17T11:11:00.204Z,8.50
2017-10-17T11:13:27.652Z,9.43
2017-10-17T11:15:55.097Z,8.90
2017-10-17T11:18:22.473Z,8.20
2017-10-17T11:20:49.921Z,8.40
2017-10-17T11:23:17.344Z,8.47
2017-10-17T11:25:44.788Z,8.87
2017-10-17T11:28:12.206Z,7.93
2017-10-17T11:30:39.658Z,8.13
2017-10-17T11:33:09.573Z,8.47
2017-10-17T11:35:37.011Z,8.60
2017-10-17T11:38:04.429Z,11.43
2017-10-17T11:40:43.701Z,9.40
2017-10-17T11:43:22.734Z,9.07
2017-10-17T11:45:50.192Z,8.30
2017-10-17T11:48:17.631Z,9.07
2017-10-17T11:50:45.057Z,8.87
2017-10-17T11:53:12.519Z,8.70
2017-10-17T11:55:39.974Z,8.57
2017-10-17T11:58:07.522Z,8.20
2017-10-17T12:00:34.949Z,8.20
2017-10-17T12:03:02.741Z,8.30
2017-10-17T12:05:30.124Z,8.90
2017-10-17T12:07:57.625Z,8.60
2017-10-17T12:10:25.869Z,8.30
2017-10-17T12:12:53.313Z,8.10
2017-10-17T12:15:20.728Z,8.93
2017-10-17T12:17:48.221Z,8.40
2017-10-17T12:20:15.978Z,8.50
2017-10-17T12:22:43.385Z,7.80
2017-10-17T12:25:11.040Z,8.33
2017-10-17T12:27:38.459Z,8.50
2017-10-17T12:30:05.900Z,9.50
2017-10-17T12:32:34.212Z,8.10
2017-10-17T12:35:01.671Z,7.87
2017-10-17T12:37:29.075Z,7.50
2017-10-17T12:39:56.552Z,8.43
2017-10-17T12:42:23.955Z,8.00
2017-10-17T12:44:51.412Z,7.43
2017-10-17T12:47:18.837Z,8.10
2017-10-17T12:49:46.283Z,7.40
2017-10-17T12:52:13.675Z,8.10
2017-10-17T12:54:41.092Z,8.13
2017-10-17T12:57:08.576Z,7.20
2017-10-17T12:59:36.037Z,7.70
2017-10-17T13:02:04.120Z,7.27
2017-10-17T13:04:31.529Z,7.97
2017-10-17T13:06:58.966Z,7.90
2017-10-17T13:09:26.386Z,7.90
2017-10-17T13:11:53.846Z,7.33
2017-10-17T13:14:21.260Z,7.13
2017-10-17T13:16:48.721Z,7.67
2017-10-17T13:19:16.295Z,7.30
2017-10-17T13:21:43.724Z,8.30
2017-10-17T13:24:11.214Z,7.27
2017-10-17T13:26:38.693Z,7.97
2017-10-17T13:29:06.147Z,7.73
2017-10-17T13:31:33.531Z,7.83
2017-10-17T13:34:00.957Z,7.27
2017-10-17T13:36:28.347Z,7.97
2017-10-17T13:38:55.768Z,9.80
2017-10-17T13:41:23.163Z,8.60
2017-10-17T13:43:50.642Z,8.13
2017-10-17T13:46:18.082Z,8.30
2017-10-17T13:48:45.495Z,7.80
2017-10-17T13:51:12.934Z,9.23
2017-10-17T13:53:40.418Z,8.57
2017-10-17T13:56:07.863Z,8.67
2017-10-17T13:58:35.329Z,8.20
2017-10-17T14:01:02.736Z,8.47
2017-10-17T14:03:30.849Z,7.90
2017-10-17T14:05:58.333Z,7.60
2017-10-17T14:08:25.797Z,7.93
2017-10-17T14:10:53.236Z,8.00
2017-10-17T14:13:20.639Z,7.57
2017-10-17T14:15:48.186Z,7.50
2017-10-17T14:18:15.647Z,8.00
2017-10-17T14:20:43.035Z,8.17
2017-10-17T14:23:10.504Z,10.90
2017-10-17T14:25:37.961Z,9.73
2017-10-17T14:28:05.454Z,18.47
2017-10-17T14:30:32.957Z,8.57
2017-10-17T14:33:00.409Z,8.33
2017-10-17T14:35:27.804Z,9.30
2017-10-17T14:37:55.247Z,9.77
2017-10-17T14:40:22.663Z,9.63
2017-10-17T14:42:50.188Z,8.63
2017-10-17T14:45:17.643Z,8.47
2017-10-17T14:47:45.068Z,8.83
2017-10-17T14:50:12.487Z,8.40
2017-10-17T14:52:39.942Z,10.57
2017-10-17T14:55:07.433Z,10.07
2017-10-17T14:57:35.269Z,9.17
2017-10-17T15:00:02.742Z,9.97
2017-10-17T15:02:30.210Z,8.80
2017-10-17T15:04:57.615Z,9.77
2017-10-17T15:07:25.047Z,9.13
2017-10-17T15:09:52.612Z,11.20
2017-10-17T15:12:20.039Z,9.73
2017-10-17T15:14:47.479Z,10.63
2017-10-17T15:17:14.948Z,10.27
2017-10-17T15:19:42.363Z,9.30
2017-10-17T15:22:09.869Z,9.80
2017-10-17T15:24:37.264Z,9.80
2017-10-17T15:27:04.668Z,9.63
2017-10-17T15:29:32.192Z,10.83
2017-10-17T15:31:59.620Z,11.20
2017-10-17T15:34:27.072Z,10.27
2017-10-17T15:36:54.483Z,10.33
2017-10-17T15:39:21.884Z,9.97
2017-10-17T15:41:49.358Z,10.47
2017-10-17T15:44:16.792Z,10.10
2017-10-17T15:46:44.456Z,10.53
2017-10-17T15:49:11.911Z,9.80
2017-10-17T15:51:39.353Z,10.17
2017-10-17T15:54:06.806Z,9.47
2017-10-17T15:56:34.224Z,10.87
2017-10-17T15:59:01.649Z,10.70
2017-10-17T16:01:29.067Z,10.33
2017-10-17T16:03:56.492Z,11.30
2017-10-17T16:06:23.974Z,11.47
2017-10-17T16:08:51.374Z,11.43
2017-10-17T16:11:18.797Z,11.80
2017-10-17T16:13:46.210Z,10.47
2017-10-17T16:16:13.645Z,11.20
2017-10-17T16:18:41.074Z,11.87
2017-10-17T16:21:08.512Z,12.33
2017-10-17T16:23:35.916Z,10.60
2017-10-17T16:26:03.347Z,10.50
2017-10-17T16:28:30.756Z,11.40
2017-10-17T16:30:58.164Z,11.23
2017-10-17T16:33:25.573Z,12.57
2017-10-17T16:35:53.031Z,12.60
2017-10-17T16:38:20.448Z,13.83
2017-10-17T16:40:47.860Z,12.77
2017-10-17T16:43:15.288Z,12.43
2017-10-17T16:45:42.716Z,11.73
2017-10-17T16:48:10.145Z,13.20
2017-10-17T16:50:37.901Z,12.47
2017-10-17T16:53:05.342Z,12.10
2017-10-17T16:55:32.739Z,12.40
2017-10-17T16:58:01.366Z,12.20
2017-10-17T17:00:28.829Z,12.30
2017-10-17T17:02:56.224Z,12.80
2017-10-17T17:05:23.690Z,13.37
2017-10-17T17:07:51.080Z,16.20
2017-10-17T17:10:18.534Z,14.83
2017-10-17T17:12:45.933Z,40.03
2017-10-17T17:15:13.385Z,14.27
2017-10-17T17:17:40.792Z,12.50
2017-10-17T17:20:08.219Z,13.47
2017-10-17T17:22:35.645Z,12.17
2017-10-17T17:25:03.157Z,13.10
2017-10-17T17:27:30.547Z,12.10
2017-10-17T17:29:58.006Z,13.17
2017-10-17T17:32:25.472Z,14.37
2017-10-17T17:34:52.879Z,13.83
2017-10-17T17:37:20.363Z,12.93
2017-10-17T17:39:48.037Z,11.97
2017-10-17T17:42:15.443Z,12.90
2017-10-17T17:44:42.836Z,13.83
2017-10-17T17:47:10.316Z,15.17
2017-10-17T17:49:37.716Z,16.10
2017-10-17T17:52:05.140Z,16.93
2017-10-17T17:54:32.564Z,15.67
2017-10-17T17:56:59.991Z,14.63
2017-10-17T17:59:27.388Z,13.60
2017-10-17T18:01:54.820Z,13.07
2017-10-17T18:04:22.242Z,12.53
2017-10-17T18:06:49.677Z,13.73
2017-10-17T18:09:17.115Z,13.20
2017-10-17T18:11:44.530Z,13.10
2017-10-17T18:14:12.008Z,14.00
2017-10-17T18:16:39.412Z,13.00
2017-10-17T18:19:06.855Z,12.93
2017-10-17T18:21:34.248Z,13.23
2017-10-17T18:24:01.723Z,12.83
2017-10-17T18:26:29.128Z,12.07
2017-10-17T18:28:56.541Z,13.50
2017-10-17T18:31:23.963Z,13.63
2017-10-17T18:33:51.368Z,13.13
2017-10-17T18:36:18.808Z,13.17
2017-10-17T18:38:46.220Z,13.73
2017-10-17T18:41:13.673Z,15.17
2017-10-17T18:43:41.072Z,13.93
2017-10-17T18:46:08.524Z,13.73
2017-10-17T18:48:35.950Z,13.80
2017-10-17T18:51:03.404Z,13.03
2017-10-17T18:53:31.771Z,12.73
2017-10-17T18:55:59.224Z,13.40
2017-10-17T18:58:26.681Z,13.20
2017-10-17T19:00:54.968Z,13.07
2017-10-17T19:03:22.435Z,12.53
2017-10-17T19:05:50.059Z,12.87
2017-10-17T19:08:17.466Z,13.80
2017-10-17T19:10:44.896Z,14.90
2017-10-17T19:13:12.664Z,13.17
2017-10-17T19:15:40.068Z,13.80
2017-10-17T19:18:07.513Z,13.50
2017-10-17T19:20:34.939Z,12.60
2017-10-17T19:23:02.372Z,12.50
2017-10-17T19:25:29.832Z,14.37
2017-10-17T19:27:57.284Z,14.13
2017-10-17T19:30:24.743Z,13.60
2017-10-17T19:32:52.143Z,13.13
2017-10-17T19:35:19.621Z,12.77
2017-10-17T19:37:47.026Z,12.60
2017-10-17T19:40:14.478Z,13.47
2017-10-17T19:42:41.919Z,13.80
2017-10-17T19:45:09.349Z,13.00
2017-10-17T19:47:36.753Z,12.70
2017-10-17T19:50:04.201Z,14.70
2017-10-17T19:52:31.603Z,13.60
2017-10-17T19:54:59.032Z,13.10
2017-10-17T19:57:27.207Z,13.50
2017-10-17T19:59:54.649Z,12.87
2017-10-17T20:02:22.084Z,13.37
2017-10-17T20:04:49.511Z,13.70
2017-10-17T20:07:16.928Z,13.47
2017-10-17T20:09:44.352Z,15.50
2017-10-17T20:12:11.809Z,12.60
2017-10-17T20:14:39.247Z,13.27
2017-10-17T20:17:06.790Z,12.43
2017-10-17T20:19:34.200Z,13.70
2017-10-17T20:22:01.641Z,13.40
2017-10-17T20:24:29.082Z,12.80
2017-10-17T20:26:56.472Z,12.77
2017-10-17T20:29:23.932Z,13.37
2017-10-17T20:31:51.353Z,13.10
2017-10-17T20:34:18.848Z,13.57
2017-10-17T20:36:46.254Z,13.13
2017-10-17T20:39:13.671Z,12.70
2017-10-17T20:41:41.110Z,13.57
2017-10-17T20:44:08.510Z,13.40
2017-10-17T20:46:35.990Z,13.77
2017-10-17T20:49:03.378Z,13.50
2017-10-17T20:51:30.825Z,14.97
2017-10-17T20:53:58.263Z,12.70
2017-10-17T20:56:25.672Z,13.10
2017-10-17T20:58:53.090Z,13.37
2017-10-17T21:01:20.536Z,12.37
2017-10-17T21:03:47.979Z,11.87
2017-10-17T21:06:15.406Z,12.80
2017-10-17T21:08:42.848Z,13.07
2017-10-17T21:11:10.260Z,13.50
2017-10-17T21:13:37.695Z,12.47
2017-10-17T21:16:05.092Z,12.33
2017-10-17T21:18:32.522Z,12.97
2017-10-17T21:20:59.929Z,12.77
2017-10-17T21:23:27.391Z,12.77
2017-10-17T21:25:56.029Z,13.87
2017-10-17T21:28:23.429Z,12.57
2017-10-17T21:30:50.868Z,13.83
2017-10-17T21:33:19.017Z,13.20
2017-10-17T21:35:46.471Z,13.10
2017-10-17T21:38:13.916Z,11.83
2017-10-17T21:40:41.349Z,12.13
2017-10-17T21:43:08.823Z,12.50
2017-10-17T21:45:37.159Z,12.27
2017-10-17T21:48:04.613Z,12.00
2017-10-17T21:50:32.049Z,11.77
2017-10-17T21:53:00.864Z,11.87
2017-10-17T21:55:28.275Z,12.80
2017-10-17T21:57:55.804Z,12.93
2017-10-17T22:00:34.896Z,12.27
2017-10-17T22:03:02.364Z,12.13
2017-10-17T22:05:29.753Z,12.60
2017-10-17T22:07:57.192Z,12.40
2017-10-17T22:10:24.611Z,12.83
2017-10-17T22:12:52.040Z,12.17
2017-10-17T22:15:19.534Z,13.10
2017-10-17T22:17:47.118Z,11.97
2017-10-17T22:20:15.014Z,12.10
2017-10-17T22:22:42.855Z,12.03
2017-10-17T22:25:10.283Z,13.10
2017-10-17T22:27:37.675Z,12.47
2017-10-17T22:30:05.167Z,12.60
2017-10-17T22:32:32.570Z,13.13
2017-10-17T22:35:00.120Z,11.40
2017-10-17T22:37:28.149Z,12.60
2017-10-17T22:39:55.580Z,12.27
2017-10-17T22:42:23.001Z,12.10
2017-10-17T22:44:50.434Z,12.70
2017-10-17T22:47:17.845Z,12.43
2017-10-17T22:49:45.278Z,11.70
2017-10-17T22:52:12.706Z,12.07
2017-10-17T22:54:40.128Z,11.80
2017-10-17T22:57:07.583Z,12.00
2017-10-17T22:59:34.992Z,11.27
2017-10-17T23:02:02.446Z,12.27
2017-10-17T23:04:29.900Z,12.70
2017-10-17T23:06:57.338Z,13.03
2017-10-17T23:09:25.032Z,12.53
2017-10-17T23:11:52.480Z,12.80
2017-10-17T23:14:19.913Z,12.50
2017-10-17T23:16:59.032Z,12.30
2017-10-17T23:19:38.379Z,13.40
2017-10-17T23:22:05.808Z,12.30
2017-10-17T23:24:33.213Z,11.97
2017-10-17T23:27:00.668Z,11.93
2017-10-17T23:29:28.093Z,12.00
2017-10-17T23:31:55.708Z,11.30
2017-10-17T23:34:23.123Z,11.00
2017-10-17T23:36:50.553Z,11.20
2017-10-17T23:39:17.993Z,11.97
2017-10-17T23:41:45.436Z,12.00
2017-10-17T23:44:12.852Z,11.57
2017-10-17T23:46:40.243Z,11.80
2017-10-17T23:49:07.716Z,10.97
2017-10-17T23:51:35.119Z,12.30
2017-10-17T23:54:02.544Z,12.27
2017-10-17T23:56:30.011Z,11.70
2017-10-17T23:58:57.471Z,11.67
